sensor_id;sensor_type;location;lat;lon;timestamp;P1;durP1;ratioP1;P2;durP2;ratioP2
43327;SDS011;28923;45.412;10.852;2022-08-19T00:01:19;0.73;;;0.30;;
43327;SDS011;28923;45.412;10.852;2022-08-19T00:03:45;0.52;;;0.30;;
43327;SDS011;28923;45.412;10.852;2022-08-19T00:06:10;1.05;;;0.40;;
43327;SDS011;28923;45.412;10.852;2022-08-19T00:08:36;0.65;;;0.40;;
43327;SDS011;28923;45.412;10.852;2022-08-19T00:11:02;0.80;;;0.40;;
43327;SDS011;28923;45.412;10.852;2022-08-19T00:13:28;0.50;;;0.30;;
43327;SDS011;28923;45.412;10.852;2022-08-19T00:15:54;0.30;;;0.30;;
43327;SDS011;28923;45.412;10.852;2022-08-19T00:18:24;0.20;;;0.10;;
43327;SDS011;28923;45.412;10.852;2022-08-19T00:20:51;0.75;;;0.50;;
43327;SDS011;28923;45.412;10.852;2022-08-19T00:23:16;0.20;;;0.20;;
43327;SDS011;28923;45.412;10.852;2022-08-19T00:25:42;0.40;;;0.38;;
43327;SDS011;28923;45.412;10.852;2022-08-19T00:28:08;0.30;;;0.30;;
43327;SDS011;28923;45.412;10.852;2022-08-19T00:30:34;0.20;;;0.20;;
43327;SDS011;28923;45.412;10.852;2022-08-19T00:33:00;0.45;;;0.28;;
43327;SDS011;28923;45.412;10.852;2022-08-19T00:35:25;0.15;;;0.15;;
43327;SDS011;28923;45.412;10.852;2022-08-19T00:37:52;0.20;;;0.20;;
43327;SDS011;28923;45.412;10.852;2022-08-19T00:40:18;0.20;;;0.20;;
43327;SDS011;28923;45.412;10.852;2022-08-19T00:42:44;0.20;;;0.20;;
43327;SDS011;28923;45.412;10.852;2022-08-19T00:45:15;0.98;;;0.30;;
43327;SDS011;28923;45.412;10.852;2022-08-19T00:47:47;0.63;;;0.22;;
43327;SDS011;28923;45.412;10.852;2022-08-19T00:50:14;0.30;;;0.30;;
43327;SDS011;28923;45.412;10.852;2022-08-19T00:52:41;0.30;;;0.20;;
43327;SDS011;28923;45.412;10.852;2022-08-19T00:55:12;1.55;;;0.20;;
43327;SDS011;28923;45.412;10.852;2022-08-19T00:57:39;0.30;;;0.30;;
43327;SDS011;28923;45.412;10.852;2022-08-19T01:00:07;5.75;;;0.30;;
43327;SDS011;28923;45.412;10.852;2022-08-19T01:02:35;0.40;;;0.25;;
43327;SDS011;28923;45.412;10.852;2022-08-19T01:05:02;0.75;;;0.30;;
43327;SDS011;28923;45.412;10.852;2022-08-19T01:07:29;0.50;;;0.20;;
43327;SDS011;28923;45.412;10.852;2022-08-19T01:09:55;0.63;;;0.20;;
43327;SDS011;28923;45.412;10.852;2022-08-19T01:12:21;0.70;;;0.20;;
43327;SDS011;28923;45.412;10.852;2022-08-19T01:14:47;0.30;;;0.30;;
43327;SDS011;28923;45.412;10.852;2022-08-19T01:17:14;0.70;;;0.20;;
43327;SDS011;28923;45.412;10.852;2022-08-19T01:19:41;0.63;;;0.20;;
43327;SDS011;28923;45.412;10.852;2022-08-19T01:24:44;0.45;;;0.28;;
43327;SDS011;28923;45.412;10.852;2022-08-19T01:27:10;0.28;;;0.28;;
43327;SDS011;28923;45.412;10.852;2022-08-19T01:29:37;0.25;;;0.25;;
43327;SDS011;28923;45.412;10.852;2022-08-19T01:32:03;0.10;;;0.10;;
43327;SDS011;28923;45.412;10.852;2022-08-19T01:34:28;1.38;;;0.30;;
43327;SDS011;28923;45.412;10.852;2022-08-19T01:36:54;0.73;;;0.30;;
43327;SDS011;28923;45.412;10.852;2022-08-19T01:39:24;0.28;;;0.20;;
43327;SDS011;28923;45.412;10.852;2022-08-19T01:41:50;0.68;;;0.32;;
43327;SDS011;28923;45.412;10.852;2022-08-19T01:44:20;1.27;;;0.20;;
43327;SDS011;28923;45.412;10.852;2022-08-19T01:46:49;0.20;;;0.20;;
43327;SDS011;28923;45.412;10.852;2022-08-19T01:49:16;0.20;;;0.20;;
43327;SDS011;28923;45.412;10.852;2022-08-19T01:51:42;2.17;;;0.20;;
43327;SDS011;28923;45.412;10.852;2022-08-19T01:54:08;0.30;;;0.22;;
43327;SDS011;28923;45.412;10.852;2022-08-19T01:56:34;0.52;;;0.28;;
43327;SDS011;28923;45.412;10.852;2022-08-19T01:59:02;0.47;;;0.22;;
43327;SDS011;28923;45.412;10.852;2022-08-19T02:01:28;0.43;;;0.30;;
43327;SDS011;28923;45.412;10.852;2022-08-19T02:03:58;0.52;;;0.20;;
43327;SDS011;28923;45.412;10.852;2022-08-19T02:06:23;0.73;;;0.40;;
43327;SDS011;28923;45.412;10.852;2022-08-19T02:08:49;0.38;;;0.20;;
43327;SDS011;28923;45.412;10.852;2022-08-19T02:11:23;0.30;;;0.10;;
43327;SDS011;28923;45.412;10.852;2022-08-19T02:13:49;0.60;;;0.32;;
43327;SDS011;28923;45.412;10.852;2022-08-19T02:16:16;0.40;;;0.20;;
43327;SDS011;28923;45.412;10.852;2022-08-19T02:18:42;0.55;;;0.30;;
43327;SDS011;28923;45.412;10.852;2022-08-19T02:21:07;0.20;;;0.20;;
43327;SDS011;28923;45.412;10.852;2022-08-19T02:23:33;0.60;;;0.20;;
43327;SDS011;28923;45.412;10.852;2022-08-19T02:25:59;0.28;;;0.28;;
43327;SDS011;28923;45.412;10.852;2022-08-19T02:28:24;0.30;;;0.30;;
43327;SDS011;28923;45.412;10.852;2022-08-19T02:30:49;0.30;;;0.20;;
43327;SDS011;28923;45.412;10.852;2022-08-19T02:33:15;0.30;;;0.20;;
43327;SDS011;28923;45.412;10.852;2022-08-19T02:35:42;0.22;;;0.22;;
43327;SDS011;28923;45.412;10.852;2022-08-19T02:38:08;0.63;;;0.20;;
43327;SDS011;28923;45.412;10.852;2022-08-19T02:40:57;0.80;;;0.32;;
43327;SDS011;28923;45.412;10.852;2022-08-19T02:43:23;0.75;;;0.20;;
43327;SDS011;28923;45.412;10.852;2022-08-19T02:45:49;0.55;;;0.30;;
43327;SDS011;28923;45.412;10.852;2022-08-19T02:48:16;0.30;;;0.30;;
43327;SDS011;28923;45.412;10.852;2022-08-19T02:50:43;0.52;;;0.20;;
43327;SDS011;28923;45.412;10.852;2022-08-19T02:53:08;0.47;;;0.35;;
43327;SDS011;28923;45.412;10.852;2022-08-19T02:55:34;0.82;;;0.28;;
43327;SDS011;28923;45.412;10.852;2022-08-19T02:58:00;2.92;;;0.30;;
43327;SDS011;28923;45.412;10.852;2022-08-19T03:00:28;0.25;;;0.20;;
43327;SDS011;28923;45.412;10.852;2022-08-19T03:02:54;0.32;;;0.20;;
43327;SDS011;28923;45.412;10.852;2022-08-19T03:05:21;0.10;;;0.10;;
43327;SDS011;28923;45.412;10.852;2022-08-19T03:07:46;0.30;;;0.20;;
43327;SDS011;28923;45.412;10.852;2022-08-19T03:10:12;0.20;;;0.17;;
43327;SDS011;28923;45.412;10.852;2022-08-19T03:12:38;0.38;;;0.20;;
43327;SDS011;28923;45.412;10.852;2022-08-19T03:15:07;0.35;;;0.22;;
43327;SDS011;28923;45.412;10.852;2022-08-19T03:17:33;0.22;;;0.15;;
43327;SDS011;28923;45.412;10.852;2022-08-19T03:19:59;0.30;;;0.30;;
43327;SDS011;28923;45.412;10.852;2022-08-19T03:22:24;0.70;;;0.20;;
43327;SDS011;28923;45.412;10.852;2022-08-19T03:24:50;0.20;;;0.20;;
43327;SDS011;28923;45.412;10.852;2022-08-19T03:27:16;0.20;;;0.20;;
43327;SDS011;28923;45.412;10.852;2022-08-19T03:29:45;0.15;;;0.15;;
43327;SDS011;28923;45.412;10.852;2022-08-19T03:32:11;0.22;;;0.22;;
43327;SDS011;28923;45.412;10.852;2022-08-19T03:34:37;0.38;;;0.20;;
43327;SDS011;28923;45.412;10.852;2022-08-19T03:37:07;0.32;;;0.30;;
43327;SDS011;28923;45.412;10.852;2022-08-19T03:39:33;0.22;;;0.22;;
43327;SDS011;28923;45.412;10.852;2022-08-19T03:42:00;0.43;;;0.20;;
43327;SDS011;28923;45.412;10.852;2022-08-19T03:44:29;0.32;;;0.30;;
43327;SDS011;28923;45.412;10.852;2022-08-19T03:46:56;0.65;;;0.17;;
43327;SDS011;28923;45.412;10.852;2022-08-19T03:49:23;0.20;;;0.20;;
43327;SDS011;28923;45.412;10.852;2022-08-19T03:51:49;0.13;;;0.13;;
43327;SDS011;28923;45.412;10.852;2022-08-19T03:54:16;0.70;;;0.20;;
43327;SDS011;28923;45.412;10.852;2022-08-19T03:56:43;1.05;;;0.20;;
43327;SDS011;28923;45.412;10.852;2022-08-19T03:59:10;0.10;;;0.10;;
43327;SDS011;28923;45.412;10.852;2022-08-19T04:01:38;1.55;;;0.35;;
43327;SDS011;28923;45.412;10.852;2022-08-19T04:04:04;0.17;;;0.17;;
43327;SDS011;28923;45.412;10.852;2022-08-19T04:06:31;0.30;;;0.20;;
43327;SDS011;28923;45.412;10.852;2022-08-19T04:08:58;0.25;;;0.20;;
43327;SDS011;28923;45.412;10.852;2022-08-19T04:11:25;0.25;;;0.20;;
43327;SDS011;28923;45.412;10.852;2022-08-19T04:13:52;0.20;;;0.20;;
43327;SDS011;28923;45.412;10.852;2022-08-19T04:16:18;0.98;;;0.20;;
43327;SDS011;28923;45.412;10.852;2022-08-19T04:18:45;1.30;;;0.30;;
43327;SDS011;28923;45.412;10.852;2022-08-19T04:21:16;0.80;;;0.20;;
43327;SDS011;28923;45.412;10.852;2022-08-19T04:23:42;1.48;;;0.20;;
43327;SDS011;28923;45.412;10.852;2022-08-19T04:26:11;0.13;;;0.10;;
43327;SDS011;28923;45.412;10.852;2022-08-19T04:28:37;0.52;;;0.20;;
43327;SDS011;28923;45.412;10.852;2022-08-19T04:31:03;0.32;;;0.20;;
43327;SDS011;28923;45.412;10.852;2022-08-19T04:33:29;0.20;;;0.20;;
43327;SDS011;28923;45.412;10.852;2022-08-19T04:35:54;2.47;;;0.90;;
43327;SDS011;28923;45.412;10.852;2022-08-19T04:38:20;3.00;;;2.08;;
43327;SDS011;28923;45.412;10.852;2022-08-19T04:40:48;7.10;;;2.30;;
43327;SDS011;28923;45.412;10.852;2022-08-19T04:43:33;6.50;;;2.88;;
43327;SDS011;28923;45.412;10.852;2022-08-19T04:46:03;4.90;;;2.35;;
43327;SDS011;28923;45.412;10.852;2022-08-19T04:48:29;10.10;;;2.33;;
43327;SDS011;28923;45.412;10.852;2022-08-19T04:50:55;5.35;;;2.30;;
43327;SDS011;28923;45.412;10.852;2022-08-19T04:53:28;9.00;;;2.35;;
43327;SDS011;28923;45.412;10.852;2022-08-19T04:55:54;7.25;;;2.55;;
43327;SDS011;28923;45.412;10.852;2022-08-19T04:58:20;5.38;;;1.98;;
43327;SDS011;28923;45.412;10.852;2022-08-19T05:00:46;4.88;;;2.00;;
43327;SDS011;28923;45.412;10.852;2022-08-19T05:03:12;7.72;;;2.20;;
43327;SDS011;28923;45.412;10.852;2022-08-19T05:05:41;4.72;;;1.65;;
43327;SDS011;28923;45.412;10.852;2022-08-19T05:08:06;8.13;;;2.33;;
43327;SDS011;28923;45.412;10.852;2022-08-19T05:10:34;5.35;;;2.22;;
43327;SDS011;28923;45.412;10.852;2022-08-19T05:13:00;7.03;;;2.00;;
43327;SDS011;28923;45.412;10.852;2022-08-19T05:15:25;7.00;;;2.00;;
43327;SDS011;28923;45.412;10.852;2022-08-19T05:17:51;5.65;;;1.88;;
43327;SDS011;28923;45.412;10.852;2022-08-19T05:20:37;4.63;;;1.55;;
43327;SDS011;28923;45.412;10.852;2022-08-19T05:23:21;5.30;;;1.52;;
43327;SDS011;28923;45.412;10.852;2022-08-19T05:25:46;5.65;;;1.98;;
43327;SDS011;28923;45.412;10.852;2022-08-19T05:28:12;7.97;;;1.90;;
43327;SDS011;28923;45.412;10.852;2022-08-19T05:30:37;3.80;;;1.80;;
43327;SDS011;28923;45.412;10.852;2022-08-19T05:33:03;7.93;;;2.20;;
43327;SDS011;28923;45.412;10.852;2022-08-19T05:35:28;5.00;;;2.20;;
43327;SDS011;28923;45.412;10.852;2022-08-19T05:37:54;6.65;;;2.50;;
43327;SDS011;28923;45.412;10.852;2022-08-19T05:40:19;5.25;;;2.08;;
43327;SDS011;28923;45.412;10.852;2022-08-19T05:42:45;4.82;;;1.85;;
43327;SDS011;28923;45.412;10.852;2022-08-19T05:45:11;6.13;;;1.92;;
43327;SDS011;28923;45.412;10.852;2022-08-19T05:47:36;4.70;;;2.33;;
43327;SDS011;28923;45.412;10.852;2022-08-19T05:50:02;4.90;;;2.45;;
43327;SDS011;28923;45.412;10.852;2022-08-19T05:52:28;3.38;;;1.80;;
43327;SDS011;28923;45.412;10.852;2022-08-19T05:54:54;7.22;;;2.50;;
43327;SDS011;28923;45.412;10.852;2022-08-19T05:57:23;6.25;;;2.15;;
43327;SDS011;28923;45.412;10.852;2022-08-19T05:59:48;8.93;;;2.10;;
43327;SDS011;28923;45.412;10.852;2022-08-19T06:02:16;4.75;;;2.08;;
43327;SDS011;28923;45.412;10.852;2022-08-19T06:04:42;5.43;;;2.38;;
43327;SDS011;28923;45.412;10.852;2022-08-19T06:07:10;6.35;;;1.95;;
43327;SDS011;28923;45.412;10.852;2022-08-19T06:09:36;7.22;;;2.30;;
43327;SDS011;28923;45.412;10.852;2022-08-19T06:12:02;8.38;;;1.90;;
43327;SDS011;28923;45.412;10.852;2022-08-19T06:14:30;7.40;;;2.40;;
43327;SDS011;28923;45.412;10.852;2022-08-19T06:16:56;4.85;;;2.20;;
43327;SDS011;28923;45.412;10.852;2022-08-19T06:19:22;6.55;;;2.97;;
43327;SDS011;28923;45.412;10.852;2022-08-19T06:21:50;7.05;;;3.15;;
43327;SDS011;28923;45.412;10.852;2022-08-19T06:24:17;7.93;;;3.38;;
43327;SDS011;28923;45.412;10.852;2022-08-19T06:26:44;6.32;;;3.20;;
43327;SDS011;28923;45.412;10.852;2022-08-19T06:29:11;7.22;;;3.03;;
43327;SDS011;28923;45.412;10.852;2022-08-19T06:31:37;5.97;;;3.17;;
43327;SDS011;28923;45.412;10.852;2022-08-19T06:34:05;4.80;;;2.60;;
43327;SDS011;28923;45.412;10.852;2022-08-19T06:36:35;7.57;;;2.70;;
43327;SDS011;28923;45.412;10.852;2022-08-19T06:39:03;6.30;;;2.00;;
43327;SDS011;28923;45.412;10.852;2022-08-19T06:41:29;4.95;;;1.95;;
43327;SDS011;28923;45.412;10.852;2022-08-19T06:43:57;10.38;;;1.65;;
43327;SDS011;28923;45.412;10.852;2022-08-19T06:46:23;5.90;;;1.60;;
43327;SDS011;28923;45.412;10.852;2022-08-19T06:48:49;5.97;;;1.50;;
43327;SDS011;28923;45.412;10.852;2022-08-19T06:51:16;6.57;;;1.48;;
43327;SDS011;28923;45.412;10.852;2022-08-19T06:53:53;5.50;;;1.60;;
43327;SDS011;28923;45.412;10.852;2022-08-19T06:56:20;4.70;;;1.45;;
43327;SDS011;28923;45.412;10.852;2022-08-19T06:58:46;5.15;;;1.58;;
43327;SDS011;28923;45.412;10.852;2022-08-19T07:01:12;5.70;;;1.48;;
43327;SDS011;28923;45.412;10.852;2022-08-19T07:03:38;2.70;;;1.30;;
43327;SDS011;28923;45.412;10.852;2022-08-19T07:06:11;4.20;;;1.70;;
43327;SDS011;28923;45.412;10.852;2022-08-19T07:08:37;3.63;;;1.20;;
43327;SDS011;28923;45.412;10.852;2022-08-19T07:11:09;4.32;;;1.23;;
43327;SDS011;28923;45.412;10.852;2022-08-19T07:13:36;5.38;;;1.33;;
43327;SDS011;28923;45.412;10.852;2022-08-19T07:16:05;4.53;;;1.40;;
43327;SDS011;28923;45.412;10.852;2022-08-19T07:18:32;4.07;;;1.35;;
43327;SDS011;28923;45.412;10.852;2022-08-19T07:23:30;3.00;;;1.23;;
43327;SDS011;28923;45.412;10.852;2022-08-19T07:25:55;3.00;;;1.20;;
43327;SDS011;28923;45.412;10.852;2022-08-19T07:28:22;4.90;;;1.55;;
43327;SDS011;28923;45.412;10.852;2022-08-19T07:30:48;3.88;;;1.30;;
43327;SDS011;28923;45.412;10.852;2022-08-19T07:33:14;2.88;;;1.10;;
43327;SDS011;28923;45.412;10.852;2022-08-19T07:35:40;6.03;;;1.30;;
43327;SDS011;28923;45.412;10.852;2022-08-19T07:38:05;2.25;;;1.00;;
43327;SDS011;28923;45.412;10.852;2022-08-19T07:40:31;2.88;;;0.95;;
43327;SDS011;28923;45.412;10.852;2022-08-19T07:42:57;3.35;;;1.15;;
43327;SDS011;28923;45.412;10.852;2022-08-19T07:45:23;4.63;;;1.15;;
43327;SDS011;28923;45.412;10.852;2022-08-19T07:47:48;3.03;;;1.25;;
43327;SDS011;28923;45.412;10.852;2022-08-19T07:50:15;1.90;;;1.10;;
43327;SDS011;28923;45.412;10.852;2022-08-19T07:52:41;3.95;;;1.17;;
43327;SDS011;28923;45.412;10.852;2022-08-19T07:55:09;2.25;;;1.00;;
43327;SDS011;28923;45.412;10.852;2022-08-19T07:57:35;4.38;;;1.35;;
43327;SDS011;28923;45.412;10.852;2022-08-19T08:00:02;3.20;;;0.85;;
43327;SDS011;28923;45.412;10.852;2022-08-19T08:02:37;4.70;;;1.10;;
43327;SDS011;28923;45.412;10.852;2022-08-19T08:05:06;1.70;;;1.02;;
43327;SDS011;28923;45.412;10.852;2022-08-19T08:07:50;2.75;;;1.20;;
43327;SDS011;28923;45.412;10.852;2022-08-19T08:10:34;3.10;;;0.93;;
43327;SDS011;28923;45.412;10.852;2022-08-19T08:12:59;2.88;;;1.40;;
43327;SDS011;28923;45.412;10.852;2022-08-19T08:15:25;1.67;;;1.00;;
43327;SDS011;28923;45.412;10.852;2022-08-19T08:17:51;2.15;;;1.00;;
43327;SDS011;28923;45.412;10.852;2022-08-19T08:20:16;2.60;;;1.00;;
43327;SDS011;28923;45.412;10.852;2022-08-19T08:22:43;2.92;;;1.08;;
43327;SDS011;28923;45.412;10.852;2022-08-19T08:25:27;4.30;;;1.05;;
43327;SDS011;28923;45.412;10.852;2022-08-19T08:27:53;3.50;;;1.20;;
43327;SDS011;28923;45.412;10.852;2022-08-19T08:30:20;2.35;;;1.10;;
43327;SDS011;28923;45.412;10.852;2022-08-19T08:32:45;2.78;;;1.08;;
43327;SDS011;28923;45.412;10.852;2022-08-19T08:35:12;3.80;;;0.82;;
43327;SDS011;28923;45.412;10.852;2022-08-19T08:37:38;3.63;;;1.40;;
43327;SDS011;28923;45.412;10.852;2022-08-19T08:40:05;2.35;;;1.13;;
43327;SDS011;28923;45.412;10.852;2022-08-19T08:42:32;3.33;;;1.27;;
43327;SDS011;28923;45.412;10.852;2022-08-19T08:45:00;3.92;;;1.02;;
43327;SDS011;28923;45.412;10.852;2022-08-19T08:47:29;3.10;;;0.90;;
43327;SDS011;28923;45.412;10.852;2022-08-19T08:52:31;2.95;;;0.90;;
43327;SDS011;28923;45.412;10.852;2022-08-19T08:55:03;2.72;;;1.00;;
43327;SDS011;28923;45.412;10.852;2022-08-19T08:59:58;2.08;;;1.10;;
43327;SDS011;28923;45.412;10.852;2022-08-19T09:02:25;1.63;;;1.00;;
43327;SDS011;28923;45.412;10.852;2022-08-19T09:04:51;1.35;;;0.80;;
43327;SDS011;28923;45.412;10.852;2022-08-19T09:12:38;1.65;;;0.80;;
43327;SDS011;28923;45.412;10.852;2022-08-19T09:15:10;3.53;;;1.30;;
43327;SDS011;28923;45.412;10.852;2022-08-19T09:17:37;3.92;;;1.30;;
43327;SDS011;28923;45.412;10.852;2022-08-19T09:20:14;2.55;;;0.90;;
43327;SDS011;28923;45.412;10.852;2022-08-19T09:28:08;2.67;;;0.90;;
43327;SDS011;28923;45.412;10.852;2022-08-19T09:30:38;3.30;;;1.15;;
43327;SDS011;28923;45.412;10.852;2022-08-19T09:33:04;1.27;;;0.90;;
43327;SDS011;28923;45.412;10.852;2022-08-19T09:35:31;1.73;;;0.90;;
43327;SDS011;28923;45.412;10.852;2022-08-19T09:37:58;2.80;;;1.05;;
43327;SDS011;28923;45.412;10.852;2022-08-19T09:40:25;4.15;;;0.90;;
43327;SDS011;28923;45.412;10.852;2022-08-19T09:42:51;1.63;;;1.13;;
43327;SDS011;28923;45.412;10.852;2022-08-19T09:45:19;3.15;;;0.93;;
43327;SDS011;28923;45.412;10.852;2022-08-19T09:47:49;3.53;;;1.30;;
43327;SDS011;28923;45.412;10.852;2022-08-19T09:50:16;2.22;;;0.93;;
43327;SDS011;28923;45.412;10.852;2022-08-19T09:52:43;3.33;;;1.13;;
43327;SDS011;28923;45.412;10.852;2022-08-19T09:55:10;1.95;;;1.00;;
43327;SDS011;28923;45.412;10.852;2022-08-19T09:57:36;1.48;;;0.82;;
43327;SDS011;28923;45.412;10.852;2022-08-19T10:00:07;1.73;;;1.00;;
43327;SDS011;28923;45.412;10.852;2022-08-19T10:02:42;2.03;;;0.75;;
43327;SDS011;28923;45.412;10.852;2022-08-19T10:05:08;1.85;;;1.08;;
43327;SDS011;28923;45.412;10.852;2022-08-19T10:07:52;1.85;;;0.90;;
43327;SDS011;28923;45.412;10.852;2022-08-19T10:10:18;1.48;;;0.80;;
43327;SDS011;28923;45.412;10.852;2022-08-19T10:12:43;1.73;;;0.70;;
43327;SDS011;28923;45.412;10.852;2022-08-19T10:15:12;2.58;;;0.90;;
43327;SDS011;28923;45.412;10.852;2022-08-19T10:17:38;2.35;;;0.82;;
43327;SDS011;28923;45.412;10.852;2022-08-19T10:20:04;2.15;;;0.82;;
43327;SDS011;28923;45.412;10.852;2022-08-19T10:22:30;1.58;;;0.93;;
43327;SDS011;28923;45.412;10.852;2022-08-19T10:24:55;3.17;;;0.82;;
43327;SDS011;28923;45.412;10.852;2022-08-19T10:27:21;1.65;;;0.68;;
43327;SDS011;28923;45.412;10.852;2022-08-19T10:29:47;1.92;;;0.88;;
43327;SDS011;28923;45.412;10.852;2022-08-19T10:32:13;1.10;;;0.90;;
43327;SDS011;28923;45.412;10.852;2022-08-19T10:34:38;2.20;;;0.90;;
43327;SDS011;28923;45.412;10.852;2022-08-19T10:37:04;1.13;;;0.77;;
43327;SDS011;28923;45.412;10.852;2022-08-19T10:39:32;1.23;;;0.85;;
43327;SDS011;28923;45.412;10.852;2022-08-19T10:41:58;1.05;;;0.70;;
43327;SDS011;28923;45.412;10.852;2022-08-19T10:44:24;2.75;;;0.80;;
43327;SDS011;28923;45.412;10.852;2022-08-19T10:46:51;2.42;;;0.95;;
43327;SDS011;28923;45.412;10.852;2022-08-19T10:49:17;2.08;;;0.90;;
43327;SDS011;28923;45.412;10.852;2022-08-19T10:51:44;1.45;;;0.65;;
43327;SDS011;28923;45.412;10.852;2022-08-19T10:54:28;1.85;;;0.90;;
43327;SDS011;28923;45.412;10.852;2022-08-19T10:57:13;1.88;;;0.93;;
43327;SDS011;28923;45.412;10.852;2022-08-19T10:59:39;1.80;;;0.82;;
43327;SDS011;28923;45.412;10.852;2022-08-19T11:02:06;2.65;;;0.88;;
43327;SDS011;28923;45.412;10.852;2022-08-19T11:04:35;2.40;;;0.75;;
43327;SDS011;28923;45.412;10.852;2022-08-19T11:07:01;1.17;;;0.70;;
43327;SDS011;28923;45.412;10.852;2022-08-19T11:09:27;1.73;;;0.75;;
43327;SDS011;28923;45.412;10.852;2022-08-19T11:11:53;3.28;;;0.90;;
43327;SDS011;28923;45.412;10.852;2022-08-19T11:14:22;1.23;;;0.93;;
43327;SDS011;28923;45.412;10.852;2022-08-19T11:16:49;1.15;;;0.75;;
43327;SDS011;28923;45.412;10.852;2022-08-19T11:19:15;1.30;;;0.90;;
43327;SDS011;28923;45.412;10.852;2022-08-19T11:21:45;0.93;;;0.60;;
43327;SDS011;28923;45.412;10.852;2022-08-19T11:24:13;1.10;;;0.70;;
43327;SDS011;28923;45.412;10.852;2022-08-19T11:26:41;1.63;;;0.80;;
43327;SDS011;28923;45.412;10.852;2022-08-19T11:29:08;2.78;;;0.90;;
43327;SDS011;28923;45.412;10.852;2022-08-19T11:31:39;1.38;;;0.80;;
43327;SDS011;28923;45.412;10.852;2022-08-19T11:34:06;0.82;;;0.52;;
43327;SDS011;28923;45.412;10.852;2022-08-19T11:36:33;1.30;;;0.70;;
43327;SDS011;28923;45.412;10.852;2022-08-19T11:39:00;2.63;;;0.70;;
43327;SDS011;28923;45.412;10.852;2022-08-19T11:44:54;2.00;;;0.88;;
43327;SDS011;28923;45.412;10.852;2022-08-19T11:47:20;2.17;;;0.70;;
43327;SDS011;28923;45.412;10.852;2022-08-19T11:49:46;0.88;;;0.70;;
43327;SDS011;28923;45.412;10.852;2022-08-19T11:52:12;2.25;;;0.80;;
43327;SDS011;28923;45.412;10.852;2022-08-19T11:54:38;1.45;;;0.60;;
43327;SDS011;28923;45.412;10.852;2022-08-19T11:57:04;1.40;;;0.82;;
43327;SDS011;28923;45.412;10.852;2022-08-19T11:59:30;2.80;;;0.70;;
43327;SDS011;28923;45.412;10.852;2022-08-19T12:01:56;1.05;;;0.55;;
43327;SDS011;28923;45.412;10.852;2022-08-19T12:07:28;0.70;;;0.60;;
43327;SDS011;28923;45.412;10.852;2022-08-19T12:09:59;2.08;;;0.70;;
43327;SDS011;28923;45.412;10.852;2022-08-19T12:12:26;0.90;;;0.73;;
43327;SDS011;28923;45.412;10.852;2022-08-19T12:14:52;0.98;;;0.70;;
43327;SDS011;28923;45.412;10.852;2022-08-19T12:17:22;1.60;;;0.73;;
43327;SDS011;28923;45.412;10.852;2022-08-19T12:19:48;2.72;;;1.15;;
43327;SDS011;28923;45.412;10.852;2022-08-19T12:22:17;1.75;;;0.60;;
43327;SDS011;28923;45.412;10.852;2022-08-19T12:24:43;2.10;;;0.75;;
43327;SDS011;28923;45.412;10.852;2022-08-19T12:27:09;1.83;;;0.73;;
43327;SDS011;28923;45.412;10.852;2022-08-19T12:29:34;0.50;;;0.50;;
43327;SDS011;28923;45.412;10.852;2022-08-19T12:32:00;6.10;;;0.90;;
43327;SDS011;28923;45.412;10.852;2022-08-19T12:34:28;1.80;;;0.82;;
43327;SDS011;28923;45.412;10.852;2022-08-19T12:36:58;2.47;;;0.70;;
43327;SDS011;28923;45.412;10.852;2022-08-19T12:39:24;1.45;;;0.88;;
43327;SDS011;28923;45.412;10.852;2022-08-19T12:41:51;1.95;;;1.00;;
43327;SDS011;28923;45.412;10.852;2022-08-19T12:44:16;1.55;;;0.80;;
43327;SDS011;28923;45.412;10.852;2022-08-19T12:46:43;3.20;;;0.80;;
43327;SDS011;28923;45.412;10.852;2022-08-19T12:49:08;1.05;;;0.65;;
43327;SDS011;28923;45.412;10.852;2022-08-19T12:51:35;2.00;;;0.70;;
43327;SDS011;28923;45.412;10.852;2022-08-19T12:54:00;4.55;;;0.90;;
43327;SDS011;28923;45.412;10.852;2022-08-19T12:56:27;1.23;;;0.70;;
43327;SDS011;28923;45.412;10.852;2022-08-19T12:58:52;1.88;;;0.70;;
43327;SDS011;28923;45.412;10.852;2022-08-19T13:01:18;1.15;;;0.63;;
43327;SDS011;28923;45.412;10.852;2022-08-19T13:03:45;1.23;;;0.57;;
43327;SDS011;28923;45.412;10.852;2022-08-19T13:06:11;2.50;;;0.80;;
43327;SDS011;28923;45.412;10.852;2022-08-19T13:08:37;3.50;;;0.80;;
43327;SDS011;28923;45.412;10.852;2022-08-19T13:11:14;6.43;;;0.95;;
43327;SDS011;28923;45.412;10.852;2022-08-19T13:13:43;2.58;;;0.82;;
43327;SDS011;28923;45.412;10.852;2022-08-19T13:16:09;2.03;;;0.80;;
43327;SDS011;28923;45.412;10.852;2022-08-19T13:18:36;3.78;;;0.80;;
43327;SDS011;28923;45.412;10.852;2022-08-19T13:21:03;2.67;;;0.60;;
43327;SDS011;28923;45.412;10.852;2022-08-19T13:23:30;1.17;;;0.70;;
43327;SDS011;28923;45.412;10.852;2022-08-19T13:25:57;2.83;;;0.90;;
43327;SDS011;28923;45.412;10.852;2022-08-19T13:28:23;3.40;;;0.95;;
43327;SDS011;28923;45.412;10.852;2022-08-19T13:30:49;2.05;;;0.80;;
43327;SDS011;28923;45.412;10.852;2022-08-19T13:33:33;2.40;;;0.70;;
43327;SDS011;28923;45.412;10.852;2022-08-19T13:35:59;0.93;;;0.70;;
43327;SDS011;28923;45.412;10.852;2022-08-19T13:38:34;1.73;;;0.60;;
43327;SDS011;28923;45.412;10.852;2022-08-19T13:41:03;1.38;;;0.77;;
43327;SDS011;28923;45.412;10.852;2022-08-19T13:43:29;2.30;;;1.00;;
43327;SDS011;28923;45.412;10.852;2022-08-19T13:45:55;3.75;;;1.00;;
43327;SDS011;28923;45.412;10.852;2022-08-19T13:48:21;5.22;;;1.70;;
43327;SDS011;28923;45.412;10.852;2022-08-19T13:50:47;2.25;;;1.45;;
43327;SDS011;28923;45.412;10.852;2022-08-19T13:53:13;2.28;;;1.35;;
43327;SDS011;28923;45.412;10.852;2022-08-19T13:55:43;2.20;;;1.50;;
43327;SDS011;28923;45.412;10.852;2022-08-19T13:58:09;3.15;;;1.58;;
43327;SDS011;28923;45.412;10.852;2022-08-19T14:00:36;2.47;;;1.23;;
43327;SDS011;28923;45.412;10.852;2022-08-19T14:03:03;2.17;;;1.30;;
43327;SDS011;28923;45.412;10.852;2022-08-19T14:05:29;5.57;;;1.50;;
43327;SDS011;28923;45.412;10.852;2022-08-19T14:07:56;3.45;;;1.20;;
43327;SDS011;28923;45.412;10.852;2022-08-19T14:10:21;2.13;;;1.23;;
43327;SDS011;28923;45.412;10.852;2022-08-19T14:12:48;4.03;;;1.10;;
43327;SDS011;28923;45.412;10.852;2022-08-19T14:15:14;1.70;;;1.15;;
43327;SDS011;28923;45.412;10.852;2022-08-19T14:17:41;3.55;;;1.30;;
43327;SDS011;28923;45.412;10.852;2022-08-19T14:20:07;2.25;;;1.40;;
43327;SDS011;28923;45.412;10.852;2022-08-19T14:22:38;1.60;;;1.00;;
43327;SDS011;28923;45.412;10.852;2022-08-19T14:25:04;1.58;;;1.10;;
43327;SDS011;28923;45.412;10.852;2022-08-19T14:27:32;2.10;;;1.10;;
43327;SDS011;28923;45.412;10.852;2022-08-19T14:29:57;2.88;;;1.42;;
43327;SDS011;28923;45.412;10.852;2022-08-19T14:32:23;2.65;;;1.10;;
43327;SDS011;28923;45.412;10.852;2022-08-19T14:34:52;3.05;;;0.98;;
43327;SDS011;28923;45.412;10.852;2022-08-19T14:37:18;2.00;;;1.10;;
43327;SDS011;28923;45.412;10.852;2022-08-19T14:39:44;2.40;;;1.10;;
43327;SDS011;28923;45.412;10.852;2022-08-19T14:42:12;2.45;;;1.20;;
43327;SDS011;28923;45.412;10.852;2022-08-19T14:44:39;3.50;;;1.10;;
43327;SDS011;28923;45.412;10.852;2022-08-19T14:47:05;3.67;;;1.00;;
43327;SDS011;28923;45.412;10.852;2022-08-19T14:49:33;1.90;;;0.93;;
43327;SDS011;28923;45.412;10.852;2022-08-19T14:52:02;2.47;;;1.40;;
43327;SDS011;28923;45.412;10.852;2022-08-19T14:54:31;4.57;;;1.00;;
43327;SDS011;28923;45.412;10.852;2022-08-19T14:56:57;3.80;;;1.10;;
43327;SDS011;28923;45.412;10.852;2022-08-19T14:59:23;1.52;;;0.80;;
43327;SDS011;28923;45.412;10.852;2022-08-19T15:01:48;2.15;;;0.98;;